createdAt,value
2019-02-04T00:04:58.606Z,-1.15
2019-02-04T00:07:51.125Z,-1.16
2019-02-04T00:10:21.421Z,-1.19
2019-02-04T00:15:47.210Z,-1.16
2019-02-04T00:18:17.580Z,-1.15
2019-02-04T00:20:51.284Z,-1.16
2019-02-04T00:23:33.996Z,-1.17
2019-02-04T00:26:16.642Z,-1.17
2019-02-04T00:28:47.992Z,-1.15
2019-02-04T00:31:30.652Z,-1.14
2019-02-04T00:34:00.952Z,-1.15
2019-02-04T00:39:27.115Z,-1.15
2019-02-04T00:42:16.444Z,-1.13
2019-02-04T00:50:32.156Z,-1.17
2019-02-04T00:53:43.809Z,-1.20
2019-02-04T00:56:14.870Z,-1.20
2019-02-04T00:58:45.507Z,-1.21
2019-02-04T01:01:46.488Z,-1.22
2019-02-04T01:04:17.277Z,-1.17
2019-02-04T01:06:47.597Z,-1.19
2019-02-04T01:09:29.363Z,-1.16
2019-02-04T01:12:00.012Z,-1.15
2019-02-04T01:20:52.852Z,-1.15
2019-02-04T01:23:23.281Z,-1.19
2019-02-04T01:25:53.550Z,-1.14
2019-02-04T01:28:35.707Z,-1.15
2019-02-04T01:31:19.989Z,-1.16
2019-02-04T01:33:52.772Z,-1.21
2019-02-04T01:36:23.344Z,-1.23
2019-02-04T01:39:33.449Z,-1.25
2019-02-04T01:42:06.505Z,-1.24
2019-02-04T01:45:05.691Z,-1.25
2019-02-04T01:47:55.396Z,-1.28
2019-02-04T01:53:22.869Z,-1.28
2019-02-04T01:56:12.302Z,-1.30
2019-02-04T01:58:42.901Z,-1.31
2019-02-04T02:06:45.263Z,-1.27
2019-02-04T02:09:34.727Z,-1.24
2019-02-04T02:14:55.967Z,-1.27
2019-02-04T02:17:39.765Z,-1.31
2019-02-04T02:20:31.150Z,-1.27
2019-02-04T02:23:01.305Z,-1.29
2019-02-04T02:25:45.458Z,-1.27
2019-02-04T02:28:28.232Z,-1.26
2019-02-04T02:30:58.891Z,-1.24
2019-02-04T02:33:29.152Z,-1.24
2019-02-04T02:36:18.754Z,-1.28
2019-02-04T02:38:49.049Z,-1.28
2019-02-04T02:41:20.390Z,-1.31
2019-02-04T02:44:03.420Z,-1.35
2019-02-04T02:46:45.978Z,-1.35
2019-02-04T02:49:16.226Z,-1.37
2019-02-04T02:51:46.846Z,-1.36
2019-02-04T02:54:28.351Z,-1.38
2019-02-04T02:57:10.676Z,-1.39
2019-02-04T03:00:04.025Z,-1.36
2019-02-04T03:02:41.623Z,-1.34
2019-02-04T03:05:31.197Z,-1.38
2019-02-04T03:08:01.495Z,-1.38
2019-02-04T03:10:42.367Z,-1.40
2019-02-04T03:13:35.136Z,-1.41
2019-02-04T03:16:12.807Z,-1.38
2019-02-04T03:18:43.502Z,-1.40
2019-02-04T03:21:25.872Z,-1.40
2019-02-04T03:24:08.052Z,-1.39
2019-02-04T03:26:38.769Z,-1.37
2019-02-04T03:29:09.521Z,-1.38
2019-02-04T03:31:51.950Z,-1.39
2019-02-04T03:34:36.541Z,-1.38
2019-02-04T03:40:09.183Z,-1.37
2019-02-04T03:42:51.438Z,-1.40
2019-02-04T03:45:21.809Z,-1.38
2019-02-04T03:48:04.289Z,-1.36
2019-02-04T03:50:43.274Z,-1.37
2019-02-04T03:53:13.629Z,-1.38
2019-02-04T03:56:03.114Z,-1.36
2019-02-04T03:58:40.706Z,-1.38
2019-02-04T04:01:11.090Z,-1.34
2019-02-04T04:03:41.710Z,-1.34
2019-02-04T04:06:50.252Z,-1.34
2019-02-04T04:09:20.910Z,-1.32
2019-02-04T04:11:51.182Z,-1.31
2019-02-04T04:14:33.678Z,-1.34
2019-02-04T04:17:15.236Z,-1.32
2019-02-04T04:19:45.487Z,-1.35
2019-02-04T04:22:15.784Z,-1.36
2019-02-04T04:25:08.632Z,-1.34
2019-02-04T04:28:18.414Z,-1.34
2019-02-04T04:30:48.730Z,-1.34
2019-02-04T04:33:31.636Z,-1.36
2019-02-04T04:36:13.962Z,-1.37
2019-02-04T04:38:44.760Z,-1.36
2019-02-04T04:41:15.100Z,-1.34
2019-02-04T04:43:57.606Z,-1.35
2019-02-04T04:46:40.986Z,-1.36
2019-02-04T04:49:11.568Z,-1.37
2019-02-04T04:51:42.162Z,-1.35
2019-02-04T04:54:24.230Z,-1.35
2019-02-04T04:57:06.631Z,-1.32
2019-02-04T04:59:36.910Z,-1.36
2019-02-04T05:05:30.618Z,-1.35
2019-02-04T05:08:00.938Z,-1.36
2019-02-04T05:10:31.668Z,-1.40
2019-02-04T05:13:08.899Z,-1.38
2019-02-04T05:15:39.149Z,-1.38
2019-02-04T05:18:09.693Z,-1.39
2019-02-04T05:20:51.102Z,-1.41
2019-02-04T05:23:31.675Z,-1.42
2019-02-04T05:26:01.902Z,-1.45
2019-02-04T05:28:51.579Z,-1.51
2019-02-04T05:31:33.539Z,-1.57
2019-02-04T05:34:05.813Z,-1.62
2019-02-04T05:36:55.504Z,-1.62
2019-02-04T05:42:28.899Z,-1.68
2019-02-04T05:45:11.772Z,-1.68
2019-02-04T05:47:42.112Z,-1.72
2019-02-04T05:53:38.284Z,-1.74
2019-02-04T06:01:39.164Z,-1.87
2019-02-04T06:04:12.577Z,-1.92
2019-02-04T06:07:03.597Z,-2.00
2019-02-04T06:10:05.769Z,-2.14
2019-02-04T06:12:38.369Z,-2.19
2019-02-04T06:21:56.901Z,-2.38
2019-02-04T06:24:30.295Z,-2.49
2019-02-04T06:27:12.364Z,-2.53
2019-02-04T06:29:44.829Z,-2.65
2019-02-04T06:32:38.418Z,-2.69
2019-02-04T06:35:28.308Z,-2.66
2019-02-04T06:44:12.051Z,-2.78
2019-02-04T06:49:24.610Z,-2.93
2019-02-04T06:52:15.725Z,-3.01
2019-02-04T06:55:09.671Z,-3.09
2019-02-04T06:57:39.938Z,-3.21
2019-02-04T07:00:29.601Z,-3.28
2019-02-04T07:03:07.323Z,-3.33
2019-02-04T07:09:40.716Z,-3.47
2019-02-04T07:12:11.243Z,-3.46
2019-02-04T07:20:53.129Z,-3.62
2019-02-04T07:23:35.294Z,-3.60
2019-02-04T07:26:05.573Z,-3.54
2019-02-04T07:28:37.439Z,-3.54
2019-02-04T07:31:08.000Z,-3.56
2019-02-04T07:33:39.926Z,-3.53
2019-02-04T07:36:31.648Z,-3.48
2019-02-04T07:42:03.362Z,-3.34
2019-02-04T07:44:33.609Z,-3.31
2019-02-04T07:47:23.036Z,-3.38
2019-02-04T07:50:04.886Z,-3.28
2019-02-04T07:52:35.493Z,-3.24
2019-02-04T07:55:17.391Z,-3.15
2019-02-04T07:57:47.785Z,-3.20
2019-02-04T08:04:10.346Z,-3.13
2019-02-04T08:09:10.239Z,-2.86
2019-02-04T08:11:40.597Z,-2.87
2019-02-04T08:14:23.362Z,-2.93
2019-02-04T08:17:09.236Z,-2.86
2019-02-04T08:19:46.769Z,-2.82
2019-02-04T08:22:20.981Z,-2.73
2019-02-04T08:25:11.102Z,-2.63
2019-02-04T08:28:02.824Z,-2.73
2019-02-04T08:30:37.750Z,-2.66
2019-02-04T08:33:31.286Z,-2.50
2019-02-04T08:36:01.649Z,-2.38
2019-02-04T08:38:32.689Z,-2.34
2019-02-04T08:41:23.621Z,-2.27
2019-02-04T08:43:53.981Z,-2.34
2019-02-04T08:46:26.140Z,-2.15
2019-02-04T08:49:08.521Z,-1.98
2019-02-04T08:51:39.217Z,-1.81
2019-02-04T08:54:09.500Z,-1.66
2019-02-04T08:56:51.639Z,-1.67
2019-02-04T08:59:33.984Z,-1.48
2019-02-04T09:05:08.005Z,-0.98
2019-02-04T09:07:41.956Z,-0.89
2019-02-04T09:10:32.440Z,-0.88
2019-02-04T09:13:03.145Z,-0.84
2019-02-04T09:15:33.440Z,-0.68
2019-02-04T09:18:04.097Z,-0.31
2019-02-04T09:20:36.832Z,-0.14
2019-02-04T09:23:07.526Z,-0.03
2019-02-04T09:25:57.009Z,0.21
2019-02-04T09:31:29.495Z,0.59
2019-02-04T09:34:00.079Z,0.97
2019-02-04T09:40:38.410Z,1.37
2019-02-04T09:49:59.964Z,1.87
2019-02-04T09:55:33.193Z,2.24
2019-02-04T09:58:17.068Z,2.42
2019-02-04T10:03:33.134Z,2.59
2019-02-04T10:06:04.079Z,2.74
2019-02-04T10:08:45.868Z,2.83
2019-02-04T10:11:31.121Z,2.83
2019-02-04T10:14:02.328Z,2.83
2019-02-04T10:16:33.115Z,2.88
2019-02-04T10:19:15.427Z,3.05
2019-02-04T10:21:58.030Z,3.46
2019-02-04T10:24:30.778Z,3.42
2019-02-04T10:27:01.175Z,3.62
2019-02-04T10:32:39.708Z,2.79
2019-02-04T10:35:29.944Z,2.23
2019-02-04T10:38:08.174Z,1.85
2019-02-04T10:40:38.948Z,1.33
2019-02-04T10:43:09.101Z,0.97
2019-02-04T10:45:43.417Z,1.19
2019-02-04T10:48:16.856Z,1.67
2019-02-04T10:50:47.403Z,2.32
2019-02-04T10:56:22.062Z,2.82
2019-02-04T10:58:52.434Z,3.19
2019-02-04T11:02:01.329Z,3.54
2019-02-04T11:04:33.467Z,3.28
2019-02-04T11:07:03.807Z,3.65
2019-02-04T11:09:45.480Z,3.81
2019-02-04T11:12:35.869Z,4.10
2019-02-04T11:15:07.710Z,3.96
2019-02-04T11:20:58.035Z,3.87
2019-02-04T11:26:15.075Z,3.50
2019-02-04T11:28:57.584Z,3.36
2019-02-04T11:34:29.443Z,3.55
2019-02-04T11:37:21.574Z,3.99
2019-02-04T11:39:51.912Z,4.32
2019-02-04T11:42:22.255Z,4.32
2019-02-04T11:45:06.688Z,4.16
2019-02-04T11:50:48.636Z,4.40
2019-02-04T11:53:53.771Z,4.06
2019-02-04T11:56:43.365Z,4.08
2019-02-04T11:59:34.383Z,4.25
2019-02-04T12:02:17.419Z,4.37
2019-02-04T12:04:52.858Z,4.52
2019-02-04T12:07:25.191Z,4.22
2019-02-04T12:10:07.929Z,4.00
2019-02-04T12:12:38.177Z,3.76
2019-02-04T12:15:26.014Z,3.79
2019-02-04T12:20:58.514Z,3.75
2019-02-04T12:23:42.066Z,3.87
2019-02-04T12:26:24.044Z,3.41
2019-02-04T12:32:36.088Z,2.31
2019-02-04T12:38:09.429Z,2.36
2019-02-04T12:40:40.193Z,2.33
2019-02-04T12:43:29.937Z,2.35
2019-02-04T12:46:00.411Z,2.48
2019-02-04T12:48:33.603Z,2.57
2019-02-04T12:51:15.227Z,2.64
2019-02-04T12:53:57.447Z,2.40
2019-02-04T12:56:31.726Z,2.26
2019-02-04T13:02:23.933Z,2.11
2019-02-04T13:04:54.201Z,2.09
2019-02-04T13:07:28.971Z,2.21
2019-02-04T13:10:18.833Z,2.39
2019-02-04T13:13:12.504Z,2.27
2019-02-04T13:15:27.645Z,2.18
2019-02-04T13:18:28.334Z,2.24
2019-02-04T13:21:00.905Z,2.17
2019-02-04T13:23:34.040Z,2.14
2019-02-04T13:26:44.804Z,2.03
2019-02-04T13:29:18.581Z,2.04
2019-02-04T13:35:10.907Z,1.91
2019-02-04T13:37:36.354Z,1.96
2019-02-04T13:40:20.132Z,1.95
2019-02-04T13:42:52.036Z,2.00
2019-02-04T13:45:22.400Z,1.93
2019-02-04T13:48:08.567Z,1.90
2019-02-04T13:50:47.827Z,1.77
2019-02-04T13:53:18.078Z,1.57
2019-02-04T13:56:01.564Z,1.61
2019-02-04T13:58:34.342Z,1.58
2019-02-04T14:01:23.775Z,1.45
2019-02-04T14:06:37.290Z,1.31
2019-02-04T14:09:29.222Z,1.35
2019-02-04T14:22:09.378Z,1.10
2019-02-04T14:24:55.235Z,1.08
2019-02-04T14:27:51.883Z,1.05
2019-02-04T14:33:23.808Z,1.11
2019-02-04T14:36:06.313Z,1.16
2019-02-04T14:38:37.201Z,1.19
2019-02-04T14:44:36.017Z,1.17
2019-02-04T14:47:16.972Z,1.15
2019-02-04T14:50:19.074Z,1.16
2019-02-04T14:53:27.903Z,1.17
2019-02-04T14:56:38.380Z,1.10
2019-02-04T15:00:03.973Z,1.12
2019-02-04T15:03:19.442Z,1.09
2019-02-04T15:06:25.469Z,0.99
2019-02-04T15:09:41.271Z,0.89
2019-02-04T15:13:09.574Z,0.76
2019-02-04T15:16:08.166Z,0.67
2019-02-04T15:19:11.941Z,0.51
2019-02-04T15:22:20.487Z,0.41
2019-02-04T15:25:50.552Z,0.33
2019-02-04T15:29:06.497Z,0.27
2019-02-04T15:32:18.063Z,0.21
2019-02-04T15:35:28.161Z,0.13
2019-02-04T15:38:36.631Z,0.09
2019-02-04T15:44:54.663Z,-0.13
2019-02-04T15:47:46.868Z,-0.13
2019-02-04T15:50:58.186Z,-0.18
2019-02-04T15:56:36.792Z,-0.29
2019-02-04T15:59:07.474Z,-0.39
2019-02-04T16:01:40.899Z,-0.52
2019-02-04T16:04:35.958Z,-0.52
2019-02-04T16:07:10.947Z,-0.51
2019-02-04T16:09:51.789Z,-0.54
2019-02-04T16:15:43.127Z,-0.61
2019-02-04T16:21:16.218Z,-0.75
2019-02-04T16:23:58.386Z,-0.80
2019-02-04T16:26:57.700Z,-0.82
2019-02-04T16:29:56.008Z,-0.85
2019-02-04T16:32:40.453Z,-0.89
2019-02-04T16:35:14.616Z,-0.90
2019-02-04T16:38:16.362Z,-0.98
2019-02-04T16:40:52.701Z,-1.02
2019-02-04T16:43:23.098Z,-1.06
2019-02-04T16:46:16.848Z,-1.13
2019-02-04T16:54:37.105Z,-1.08
2019-02-04T16:57:29.664Z,-1.18
2019-02-04T17:02:54.684Z,-1.21
2019-02-04T17:05:45.941Z,-1.26
2019-02-04T17:08:23.433Z,-1.28
2019-02-04T17:10:53.905Z,-1.36
2019-02-04T17:13:36.565Z,-1.31
2019-02-04T17:22:22.176Z,-1.48
2019-02-04T17:25:04.689Z,-1.47
2019-02-04T17:27:38.301Z,-1.43
2019-02-04T17:30:15.724Z,-1.46
2019-02-04T17:33:27.221Z,-1.54
2019-02-04T17:38:44.558Z,-1.53
2019-02-04T17:41:38.855Z,-1.55
2019-02-04T17:50:16.613Z,-1.71
2019-02-04T17:52:47.043Z,-1.74
2019-02-04T17:55:40.716Z,-1.74
2019-02-04T18:11:02.054Z,-1.72
2019-02-04T18:23:13.409Z,-1.73
2019-02-04T18:26:22.263Z,-1.82
2019-02-04T18:29:18.310Z,-1.80
2019-02-04T18:32:35.440Z,-1.79
2019-02-04T18:39:26.419Z,-1.84
2019-02-04T18:45:17.342Z,-1.90
2019-02-04T18:47:47.738Z,-1.88
2019-02-04T18:50:43.737Z,-1.91
2019-02-04T18:54:04.408Z,-1.95
2019-02-04T18:56:34.206Z,-1.95
2019-02-04T18:59:04.693Z,-1.94
2019-02-04T19:01:54.479Z,-1.90
2019-02-04T19:04:38.169Z,-1.96
2019-02-04T19:07:24.137Z,-1.97
2019-02-04T19:10:44.949Z,-2.01
2019-02-04T19:13:11.773Z,-2.03
2019-02-04T19:16:08.530Z,-2.14
2019-02-04T19:18:52.029Z,-2.15
2019-02-04T19:24:43.847Z,-2.14
2019-02-04T19:30:44.807Z,-2.45
2019-02-04T19:33:20.355Z,-2.59
2019-02-04T19:36:10.102Z,-2.52
2019-02-04T19:38:47.382Z,-2.47
2019-02-04T19:44:39.039Z,-2.65
2019-02-04T19:50:14.500Z,-3.06
2019-02-04T19:53:15.111Z,-3.30
2019-02-04T19:55:57.087Z,-3.07
2019-02-04T20:01:29.959Z,-3.02
2019-02-04T20:04:03.583Z,-2.95
2019-02-04T20:06:34.263Z,-2.89
2019-02-04T20:09:19.800Z,-2.75
2019-02-04T20:12:11.304Z,-2.77
2019-02-04T20:15:01.035Z,-2.86
2019-02-04T20:17:33.010Z,-2.85
2019-02-04T20:20:14.146Z,-2.89
2019-02-04T20:23:06.637Z,-2.92
2019-02-04T20:25:37.146Z,-2.78
2019-02-04T20:32:18.316Z,-2.68
2019-02-04T20:34:55.493Z,-2.72
2019-02-04T20:37:21.372Z,-2.65
2019-02-04T20:40:03.664Z,-2.63
2019-02-04T20:42:45.935Z,-2.59
2019-02-04T20:45:27.909Z,-2.58
2019-02-04T20:51:41.538Z,-2.54
2019-02-04T20:54:19.420Z,-2.56
2019-02-04T20:56:50.005Z,-2.54
2019-02-04T21:11:03.540Z,-2.54
2019-02-04T21:16:55.674Z,-2.52
2019-02-04T21:20:04.426Z,-2.52
2019-02-04T21:23:25.079Z,-2.50
2019-02-04T21:25:32.388Z,-2.50
2019-02-04T21:28:14.494Z,-2.44
2019-02-04T21:30:48.232Z,-2.40
2019-02-04T21:36:27.328Z,-2.42
2019-02-04T21:38:57.703Z,-2.39
2019-02-04T21:41:49.470Z,-2.42
2019-02-04T21:44:41.809Z,-2.41
2019-02-04T21:47:12.071Z,-2.38
2019-02-04T21:50:03.175Z,-2.33
2019-02-04T21:52:33.729Z,-2.31
2019-02-04T21:55:23.040Z,-2.33
2019-02-04T21:58:07.010Z,-2.35
2019-02-04T22:00:37.996Z,-2.34
2019-02-04T22:03:08.846Z,-2.33
2019-02-04T22:06:00.506Z,-2.32
2019-02-04T22:08:30.916Z,-2.25
2019-02-04T22:11:03.722Z,-2.28
2019-02-04T22:13:46.061Z,-2.30
2019-02-04T22:16:17.221Z,-2.29
2019-02-04T22:18:47.524Z,-2.29
2019-02-04T22:21:17.841Z,-2.35
2019-02-04T22:24:03.260Z,-2.38
2019-02-04T22:26:52.953Z,-2.43
2019-02-04T22:29:23.464Z,-2.41
2019-02-04T22:32:05.418Z,-2.38
2019-02-04T22:34:46.865Z,-2.36
2019-02-04T22:43:14.160Z,-2.33
2019-02-04T22:45:44.416Z,-2.34
2019-02-04T22:48:16.335Z,-2.34
2019-02-04T22:51:05.040Z,-2.35
2019-02-04T22:53:55.985Z,-2.33
2019-02-04T22:56:31.879Z,-2.33
2019-02-04T22:59:21.312Z,-2.32
2019-02-04T23:01:54.058Z,-2.31
2019-02-04T23:04:45.103Z,-2.29
2019-02-04T23:07:26.932Z,-2.29
2019-02-04T23:10:12.811Z,-2.31
2019-02-04T23:13:03.865Z,-2.28
2019-02-04T23:15:34.224Z,-2.33
2019-02-04T23:18:05.238Z,-2.36
2019-02-04T23:20:37.140Z,-2.38
2019-02-04T23:23:19.525Z,-2.37
2019-02-04T23:26:02.743Z,-2.37
2019-02-04T23:28:33.284Z,-2.36
2019-02-04T23:34:39.425Z,-2.36
2019-02-04T23:37:12.415Z,-2.36
2019-02-04T23:40:02.109Z,-2.37
2019-02-04T23:42:34.366Z,-2.35
2019-02-04T23:45:05.379Z,-2.35
2019-02-04T23:47:55.095Z,-2.37
2019-02-04T23:50:26.934Z,-2.33
2019-02-04T23:52:57.164Z,-2.33
2019-02-04T23:55:29.063Z,-2.36
2019-02-04T23:57:59.431Z,-2.37
